Laurence G Hanscom Field Bedford US
ICAO: KBED
IATA: BED
Category: Medium
Scheduled Services: No

Elevation: 133 ft
TransAlt. 18000 ft.

Airport Communications:
BOSTON APP/DEP:124.4
ATIS:124.6
CLNC DEL:121.85
CTAF:118.5
HANSCOM GND:121.7
HANSCOM COMD POST:39.71
HANSCOM TWR:118.5
UNICOM:122.95

KBED Zoom In..

If Map Doesn't Load, Click Here

Runways:

(A) RW 05 length 5107 ft width 150 ft
---- / hdg 53

(B) RW 11 length 7011 ft width 150 ft
ILS 111.15 / hdg 113

(C) RW 23 length 5107 ft width 150 ft
---- / hdg 233

(D) RW 29 length 7011 ft width 150 ft
ILS 111.15 / hdg 293

Location; KBED
Day. 21 / Time. 14.56 Zulu
* Altimeter: 30.23
* Temperature: 19° c. 66.2°f.
* Wind from: 170° Speed 10 kn.
Dewpoint: 11° c.
Visibility: 10 Statute Miles.
Clouds: Scattered 5000 ft.

KBED 211456Z 17010KT 10SM SCT050 19/11 A3023 RMK AO2 SLP249 T01940106 58021


Wind From 170°
Speed 10 kn.

 
 
jpsmedia.com for Web Design worldairports.se 2018   terms of use